sensor_id;sensor_type;location;lat;lon;timestamp;temperature;humidity
58554;DHT22;48119;53.218;6.576;2023-11-18T00:01:37;9.30;99.90
58554;DHT22;48119;53.218;6.576;2023-11-18T00:04:03;9.30;99.90
58554;DHT22;48119;53.218;6.576;2023-11-18T00:06:29;9.30;99.90
58554;DHT22;48119;53.218;6.576;2023-11-18T00:08:55;9.30;99.90
58554;DHT22;48119;53.218;6.576;2023-11-18T00:11:21;9.30;99.90
58554;DHT22;48119;53.218;6.576;2023-11-18T00:13:46;9.30;99.90
58554;DHT22;48119;53.218;6.576;2023-11-18T00:16:12;9.30;99.90
58554;DHT22;48119;53.218;6.576;2023-11-18T00:18:39;9.20;99.90
58554;DHT22;48119;53.218;6.576;2023-11-18T00:21:06;9.20;99.90
58554;DHT22;48119;53.218;6.576;2023-11-18T00:23:33;9.20;99.90
58554;DHT22;48119;53.218;6.576;2023-11-18T00:25:59;9.20;99.90
58554;DHT22;48119;53.218;6.576;2023-11-18T00:28:25;9.20;99.90
58554;DHT22;48119;53.218;6.576;2023-11-18T00:30:51;9.10;99.90
58554;DHT22;48119;53.218;6.576;2023-11-18T00:33:16;9.10;99.90
58554;DHT22;48119;53.218;6.576;2023-11-18T00:35:42;9.10;99.90
58554;DHT22;48119;53.218;6.576;2023-11-18T00:38:09;9.10;99.90
58554;DHT22;48119;53.218;6.576;2023-11-18T00:40:35;9.10;99.90
58554;DHT22;48119;53.218;6.576;2023-11-18T00:43:01;9.10;99.90
58554;DHT22;48119;53.218;6.576;2023-11-18T00:45:28;9.10;99.90
58554;DHT22;48119;53.218;6.576;2023-11-18T00:47:54;9.10;99.90
58554;DHT22;48119;53.218;6.576;2023-11-18T00:50:20;9.10;99.90
58554;DHT22;48119;53.218;6.576;2023-11-18T00:52:46;9.10;99.90
58554;DHT22;48119;53.218;6.576;2023-11-18T00:55:15;9.10;99.90
58554;DHT22;48119;53.218;6.576;2023-11-18T00:57:44;9.10;99.90
58554;DHT22;48119;53.218;6.576;2023-11-18T01:00:15;9.00;99.90
58554;DHT22;48119;53.218;6.576;2023-11-18T01:02:48;9.10;99.90
58554;DHT22;48119;53.218;6.576;2023-11-18T01:05:15;9.10;99.90
58554;DHT22;48119;53.218;6.576;2023-11-18T01:07:41;9.00;99.90
58554;DHT22;48119;53.218;6.576;2023-11-18T01:10:07;9.10;99.90
58554;DHT22;48119;53.218;6.576;2023-11-18T01:12:34;9.00;99.90
58554;DHT22;48119;53.218;6.576;2023-11-18T01:15:00;9.10;99.90
58554;DHT22;48119;53.218;6.576;2023-11-18T01:17:25;9.00;99.90
58554;DHT22;48119;53.218;6.576;2023-11-18T01:19:51;9.00;99.90
58554;DHT22;48119;53.218;6.576;2023-11-18T01:22:17;9.00;99.90
58554;DHT22;48119;53.218;6.576;2023-11-18T01:24:44;9.00;99.90
58554;DHT22;48119;53.218;6.576;2023-11-18T01:27:10;9.00;99.90
58554;DHT22;48119;53.218;6.576;2023-11-18T01:29:37;9.00;99.90
58554;DHT22;48119;53.218;6.576;2023-11-18T01:32:05;9.00;99.90
58554;DHT22;48119;53.218;6.576;2023-11-18T01:34:35;8.90;99.90
58554;DHT22;48119;53.218;6.576;2023-11-18T01:37:03;8.90;99.90
58554;DHT22;48119;53.218;6.576;2023-11-18T01:39:30;8.90;99.90
58554;DHT22;48119;53.218;6.576;2023-11-18T01:41:56;8.90;99.90
58554;DHT22;48119;53.218;6.576;2023-11-18T01:44:25;8.90;99.90
58554;DHT22;48119;53.218;6.576;2023-11-18T01:46:57;8.90;99.90
58554;DHT22;48119;53.218;6.576;2023-11-18T01:49:23;8.80;99.90
58554;DHT22;48119;53.218;6.576;2023-11-18T01:51:51;8.80;99.90
58554;DHT22;48119;53.218;6.576;2023-11-18T01:54:21;8.70;99.90
58554;DHT22;48119;53.218;6.576;2023-11-18T01:56:50;8.70;99.90
58554;DHT22;48119;53.218;6.576;2023-11-18T01:59:17;8.70;99.90
58554;DHT22;48119;53.218;6.576;2023-11-18T02:01:50;8.70;99.90
58554;DHT22;48119;53.218;6.576;2023-11-18T02:04:19;8.70;99.90
58554;DHT22;48119;53.218;6.576;2023-11-18T02:06:46;8.70;99.90
58554;DHT22;48119;53.218;6.576;2023-11-18T02:09:17;8.70;99.90
58554;DHT22;48119;53.218;6.576;2023-11-18T02:12:08;8.70;99.90
58554;DHT22;48119;53.218;6.576;2023-11-18T02:14:39;8.60;99.90
58554;DHT22;48119;53.218;6.576;2023-11-18T02:17:05;8.60;99.90
58554;DHT22;48119;53.218;6.576;2023-11-18T02:19:35;8.60;99.90
58554;DHT22;48119;53.218;6.576;2023-11-18T02:22:02;8.60;99.90
58554;DHT22;48119;53.218;6.576;2023-11-18T02:24:32;8.60;99.90
58554;DHT22;48119;53.218;6.576;2023-11-18T02:27:07;8.60;99.90
58554;DHT22;48119;53.218;6.576;2023-11-18T02:29:39;8.60;99.90
58554;DHT22;48119;53.218;6.576;2023-11-18T02:34:40;8.60;99.90
58554;DHT22;48119;53.218;6.576;2023-11-18T02:37:09;8.60;99.90
58554;DHT22;48119;53.218;6.576;2023-11-18T02:39:40;8.50;99.90
58554;DHT22;48119;53.218;6.576;2023-11-18T02:42:08;8.60;99.90
58554;DHT22;48119;53.218;6.576;2023-11-18T02:44:37;8.50;99.90
58554;DHT22;48119;53.218;6.576;2023-11-18T02:47:04;8.50;99.90
58554;DHT22;48119;53.218;6.576;2023-11-18T02:49:36;8.50;99.90
58554;DHT22;48119;53.218;6.576;2023-11-18T02:52:02;8.60;99.90
58554;DHT22;48119;53.218;6.576;2023-11-18T02:54:28;8.60;99.90
58554;DHT22;48119;53.218;6.576;2023-11-18T02:56:54;8.60;99.90
58554;DHT22;48119;53.218;6.576;2023-11-18T02:59:20;8.50;99.90
58554;DHT22;48119;53.218;6.576;2023-11-18T03:01:46;8.60;99.90
58554;DHT22;48119;53.218;6.576;2023-11-18T03:04:12;8.60;99.90
58554;DHT22;48119;53.218;6.576;2023-11-18T03:06:39;8.60;99.90
58554;DHT22;48119;53.218;6.576;2023-11-18T03:09:06;8.60;99.90
58554;DHT22;48119;53.218;6.576;2023-11-18T03:11:33;8.50;99.90
58554;DHT22;48119;53.218;6.576;2023-11-18T03:13:59;8.60;99.90
58554;DHT22;48119;53.218;6.576;2023-11-18T03:16:25;8.50;99.90
58554;DHT22;48119;53.218;6.576;2023-11-18T03:18:51;8.50;99.90
58554;DHT22;48119;53.218;6.576;2023-11-18T03:21:17;8.50;99.90
58554;DHT22;48119;53.218;6.576;2023-11-18T03:23:45;8.50;99.90
58554;DHT22;48119;53.218;6.576;2023-11-18T03:26:11;8.50;99.90
58554;DHT22;48119;53.218;6.576;2023-11-18T03:28:37;8.50;99.90
58554;DHT22;48119;53.218;6.576;2023-11-18T03:31:06;8.40;99.90
58554;DHT22;48119;53.218;6.576;2023-11-18T03:33:33;8.50;99.90
58554;DHT22;48119;53.218;6.576;2023-11-18T03:35:58;8.40;99.90
58554;DHT22;48119;53.218;6.576;2023-11-18T03:38:25;8.40;99.90
58554;DHT22;48119;53.218;6.576;2023-11-18T03:40:53;8.40;99.90
58554;DHT22;48119;53.218;6.576;2023-11-18T03:43:19;8.40;99.90
58554;DHT22;48119;53.218;6.576;2023-11-18T03:45:45;8.40;99.90
58554;DHT22;48119;53.218;6.576;2023-11-18T03:48:11;8.40;99.90
58554;DHT22;48119;53.218;6.576;2023-11-18T03:50:42;8.40;99.90
58554;DHT22;48119;53.218;6.576;2023-11-18T03:53:11;8.30;99.90
58554;DHT22;48119;53.218;6.576;2023-11-18T03:55:36;8.40;99.90
58554;DHT22;48119;53.218;6.576;2023-11-18T03:58:02;8.40;99.90
58554;DHT22;48119;53.218;6.576;2023-11-18T04:00:28;8.30;99.90
58554;DHT22;48119;53.218;6.576;2023-11-18T04:02:58;8.30;99.90
58554;DHT22;48119;53.218;6.576;2023-11-18T04:05:24;8.40;99.90
58554;DHT22;48119;53.218;6.576;2023-11-18T04:07:50;8.30;99.90
58554;DHT22;48119;53.218;6.576;2023-11-18T04:10:16;8.30;99.90
58554;DHT22;48119;53.218;6.576;2023-11-18T04:12:43;8.20;99.90
58554;DHT22;48119;53.218;6.576;2023-11-18T04:15:12;8.20;99.90
58554;DHT22;48119;53.218;6.576;2023-11-18T04:17:38;8.20;99.90
58554;DHT22;48119;53.218;6.576;2023-11-18T04:20:04;8.20;99.90
58554;DHT22;48119;53.218;6.576;2023-11-18T04:22:38;8.20;99.90
58554;DHT22;48119;53.218;6.576;2023-11-18T04:25:05;8.20;99.90
58554;DHT22;48119;53.218;6.576;2023-11-18T04:27:32;8.20;99.90
58554;DHT22;48119;53.218;6.576;2023-11-18T04:29:58;8.20;99.90
58554;DHT22;48119;53.218;6.576;2023-11-18T04:32:23;8.20;99.90
58554;DHT22;48119;53.218;6.576;2023-11-18T04:34:49;8.20;99.90
58554;DHT22;48119;53.218;6.576;2023-11-18T04:37:17;8.20;99.90
58554;DHT22;48119;53.218;6.576;2023-11-18T04:39:43;8.10;99.90
58554;DHT22;48119;53.218;6.576;2023-11-18T04:42:09;8.20;99.90
58554;DHT22;48119;53.218;6.576;2023-11-18T04:44:38;8.20;99.90
58554;DHT22;48119;53.218;6.576;2023-11-18T04:47:04;8.20;99.90
58554;DHT22;48119;53.218;6.576;2023-11-18T04:49:30;8.10;99.90
58554;DHT22;48119;53.218;6.576;2023-11-18T04:51:55;8.00;99.90
58554;DHT22;48119;53.218;6.576;2023-11-18T04:54:21;8.00;99.90
58554;DHT22;48119;53.218;6.576;2023-11-18T04:56:47;8.00;99.90
58554;DHT22;48119;53.218;6.576;2023-11-18T04:59:13;8.00;99.90
58554;DHT22;48119;53.218;6.576;2023-11-18T05:01:39;8.00;99.90
58554;DHT22;48119;53.218;6.576;2023-11-18T05:04:04;8.00;99.90
58554;DHT22;48119;53.218;6.576;2023-11-18T05:06:31;8.00;99.90
58554;DHT22;48119;53.218;6.576;2023-11-18T05:08:57;8.00;99.90
58554;DHT22;48119;53.218;6.576;2023-11-18T05:11:23;8.00;99.90
58554;DHT22;48119;53.218;6.576;2023-11-18T05:13:48;8.00;99.90
58554;DHT22;48119;53.218;6.576;2023-11-18T05:16:15;8.00;99.90
58554;DHT22;48119;53.218;6.576;2023-11-18T05:18:40;8.00;99.90
58554;DHT22;48119;53.218;6.576;2023-11-18T05:21:06;8.00;99.90
58554;DHT22;48119;53.218;6.576;2023-11-18T05:23:36;8.00;99.90
58554;DHT22;48119;53.218;6.576;2023-11-18T05:26:01;8.10;99.90
58554;DHT22;48119;53.218;6.576;2023-11-18T05:28:30;8.00;99.90
58554;DHT22;48119;53.218;6.576;2023-11-18T05:30:56;8.00;99.90
58554;DHT22;48119;53.218;6.576;2023-11-18T05:33:27;8.00;99.90
58554;DHT22;48119;53.218;6.576;2023-11-18T05:35:54;8.00;99.90
58554;DHT22;48119;53.218;6.576;2023-11-18T05:38:21;8.00;99.90
58554;DHT22;48119;53.218;6.576;2023-11-18T05:40:52;8.00;99.90
58554;DHT22;48119;53.218;6.576;2023-11-18T05:43:30;8.00;99.90
58554;DHT22;48119;53.218;6.576;2023-11-18T05:46:03;8.00;99.90
58554;DHT22;48119;53.218;6.576;2023-11-18T05:48:44;8.00;99.90
58554;DHT22;48119;53.218;6.576;2023-11-18T05:51:10;8.00;99.90
58554;DHT22;48119;53.218;6.576;2023-11-18T05:53:40;8.00;99.90
58554;DHT22;48119;53.218;6.576;2023-11-18T05:56:07;7.90;99.90
58554;DHT22;48119;53.218;6.576;2023-11-18T05:58:33;7.90;99.90
58554;DHT22;48119;53.218;6.576;2023-11-18T06:00:59;7.90;99.90
58554;DHT22;48119;53.218;6.576;2023-11-18T06:03:25;7.90;99.90
58554;DHT22;48119;53.218;6.576;2023-11-18T06:05:51;7.90;99.90
58554;DHT22;48119;53.218;6.576;2023-11-18T06:08:17;7.90;99.90
58554;DHT22;48119;53.218;6.576;2023-11-18T06:10:43;7.90;99.90
58554;DHT22;48119;53.218;6.576;2023-11-18T06:13:10;7.90;99.90
58554;DHT22;48119;53.218;6.576;2023-11-18T06:15:38;7.90;99.90
58554;DHT22;48119;53.218;6.576;2023-11-18T06:18:05;7.90;99.90
58554;DHT22;48119;53.218;6.576;2023-11-18T06:20:33;8.00;99.90
58554;DHT22;48119;53.218;6.576;2023-11-18T06:23:00;8.00;99.90
58554;DHT22;48119;53.218;6.576;2023-11-18T06:25:26;8.00;99.90
58554;DHT22;48119;53.218;6.576;2023-11-18T06:27:52;8.00;99.90
58554;DHT22;48119;53.218;6.576;2023-11-18T06:30:20;7.90;99.90
58554;DHT22;48119;53.218;6.576;2023-11-18T06:32:48;7.90;99.90
58554;DHT22;48119;53.218;6.576;2023-11-18T06:35:13;7.90;99.90
58554;DHT22;48119;53.218;6.576;2023-11-18T06:37:40;8.00;99.90
58554;DHT22;48119;53.218;6.576;2023-11-18T06:40:08;8.00;99.90
58554;DHT22;48119;53.218;6.576;2023-11-18T06:42:45;8.00;99.90
58554;DHT22;48119;53.218;6.576;2023-11-18T06:45:13;8.00;99.90
58554;DHT22;48119;53.218;6.576;2023-11-18T06:47:40;8.00;99.90
58554;DHT22;48119;53.218;6.576;2023-11-18T06:50:10;8.00;99.90
58554;DHT22;48119;53.218;6.576;2023-11-18T06:52:41;8.00;99.90
58554;DHT22;48119;53.218;6.576;2023-11-18T06:55:10;8.00;99.90
58554;DHT22;48119;53.218;6.576;2023-11-18T06:57:37;8.00;99.90
58554;DHT22;48119;53.218;6.576;2023-11-18T07:00:04;8.00;99.90
58554;DHT22;48119;53.218;6.576;2023-11-18T07:02:34;8.00;99.90
58554;DHT22;48119;53.218;6.576;2023-11-18T07:04:59;8.00;99.90
58554;DHT22;48119;53.218;6.576;2023-11-18T07:07:25;8.00;99.90
58554;DHT22;48119;53.218;6.576;2023-11-18T07:09:51;8.00;99.90
58554;DHT22;48119;53.218;6.576;2023-11-18T07:12:17;8.00;99.90
58554;DHT22;48119;53.218;6.576;2023-11-18T07:14:47;8.00;99.90
58554;DHT22;48119;53.218;6.576;2023-11-18T07:17:13;8.00;99.90
58554;DHT22;48119;53.218;6.576;2023-11-18T07:19:39;8.00;99.90
58554;DHT22;48119;53.218;6.576;2023-11-18T07:22:05;8.00;99.90
58554;DHT22;48119;53.218;6.576;2023-11-18T07:24:32;8.00;99.90
58554;DHT22;48119;53.218;6.576;2023-11-18T07:26:58;8.00;99.90
58554;DHT22;48119;53.218;6.576;2023-11-18T07:29:25;8.00;99.90
58554;DHT22;48119;53.218;6.576;2023-11-18T07:31:53;8.00;99.90
58554;DHT22;48119;53.218;6.576;2023-11-18T07:34:22;8.00;99.90
58554;DHT22;48119;53.218;6.576;2023-11-18T07:36:49;8.00;99.90
58554;DHT22;48119;53.218;6.576;2023-11-18T07:39:15;8.00;99.90
58554;DHT22;48119;53.218;6.576;2023-11-18T07:41:44;8.00;99.90
58554;DHT22;48119;53.218;6.576;2023-11-18T07:44:09;8.10;99.90
58554;DHT22;48119;53.218;6.576;2023-11-18T07:46:38;8.10;99.90
58554;DHT22;48119;53.218;6.576;2023-11-18T07:49:04;8.00;99.90
58554;DHT22;48119;53.218;6.576;2023-11-18T07:51:32;8.10;99.90
58554;DHT22;48119;53.218;6.576;2023-11-18T07:53:57;8.00;99.90
58554;DHT22;48119;53.218;6.576;2023-11-18T07:56:23;8.00;99.90
58554;DHT22;48119;53.218;6.576;2023-11-18T07:58:49;8.00;99.90
58554;DHT22;48119;53.218;6.576;2023-11-18T08:01:17;8.10;99.90
58554;DHT22;48119;53.218;6.576;2023-11-18T08:03:44;8.10;99.90
58554;DHT22;48119;53.218;6.576;2023-11-18T08:06:11;8.00;99.90
58554;DHT22;48119;53.218;6.576;2023-11-18T08:08:37;8.10;99.90
58554;DHT22;48119;53.218;6.576;2023-11-18T08:11:04;8.10;99.90
58554;DHT22;48119;53.218;6.576;2023-11-18T08:13:30;8.10;99.90
58554;DHT22;48119;53.218;6.576;2023-11-18T08:15:56;8.10;99.90
58554;DHT22;48119;53.218;6.576;2023-11-18T08:18:24;8.10;99.90
58554;DHT22;48119;53.218;6.576;2023-11-18T08:20:50;8.10;99.90
58554;DHT22;48119;53.218;6.576;2023-11-18T08:23:16;8.10;99.90
58554;DHT22;48119;53.218;6.576;2023-11-18T08:25:44;8.10;99.90
58554;DHT22;48119;53.218;6.576;2023-11-18T08:28:11;8.10;99.90
58554;DHT22;48119;53.218;6.576;2023-11-18T08:30:39;8.20;99.90
58554;DHT22;48119;53.218;6.576;2023-11-18T08:33:05;8.20;99.90
58554;DHT22;48119;53.218;6.576;2023-11-18T08:35:37;8.20;99.90
58554;DHT22;48119;53.218;6.576;2023-11-18T08:38:03;8.20;99.90
58554;DHT22;48119;53.218;6.576;2023-11-18T08:40:30;8.20;99.90
58554;DHT22;48119;53.218;6.576;2023-11-18T08:42:56;8.20;99.90
58554;DHT22;48119;53.218;6.576;2023-11-18T08:45:23;8.30;99.90
58554;DHT22;48119;53.218;6.576;2023-11-18T08:47:57;8.20;99.90
58554;DHT22;48119;53.218;6.576;2023-11-18T08:50:24;8.20;99.90
58554;DHT22;48119;53.218;6.576;2023-11-18T08:52:51;8.20;99.90
58554;DHT22;48119;53.218;6.576;2023-11-18T08:55:24;8.30;99.90
58554;DHT22;48119;53.218;6.576;2023-11-18T08:58:04;8.20;99.90
58554;DHT22;48119;53.218;6.576;2023-11-18T09:00:42;8.30;99.90
58554;DHT22;48119;53.218;6.576;2023-11-18T09:03:16;8.30;99.90
58554;DHT22;48119;53.218;6.576;2023-11-18T09:05:58;8.30;99.90
58554;DHT22;48119;53.218;6.576;2023-11-18T09:08:27;8.30;99.90
58554;DHT22;48119;53.218;6.576;2023-11-18T09:10:56;8.30;99.90
58554;DHT22;48119;53.218;6.576;2023-11-18T09:13:23;8.30;99.90
58554;DHT22;48119;53.218;6.576;2023-11-18T09:15:58;8.30;99.90
58554;DHT22;48119;53.218;6.576;2023-11-18T09:18:26;8.30;99.90
58554;DHT22;48119;53.218;6.576;2023-11-18T09:20:56;8.30;99.90
58554;DHT22;48119;53.218;6.576;2023-11-18T09:23:27;8.30;99.90
58554;DHT22;48119;53.218;6.576;2023-11-18T09:25:53;8.30;99.90
58554;DHT22;48119;53.218;6.576;2023-11-18T09:28:20;8.30;99.90
58554;DHT22;48119;53.218;6.576;2023-11-18T09:30:46;8.30;99.90
58554;DHT22;48119;53.218;6.576;2023-11-18T09:33:20;8.30;99.90
58554;DHT22;48119;53.218;6.576;2023-11-18T09:36:03;8.30;99.90
58554;DHT22;48119;53.218;6.576;2023-11-18T09:38:37;8.30;99.90
58554;DHT22;48119;53.218;6.576;2023-11-18T09:41:07;8.30;99.90
58554;DHT22;48119;53.218;6.576;2023-11-18T09:43:40;8.30;99.90
58554;DHT22;48119;53.218;6.576;2023-11-18T09:46:28;8.30;99.90
58554;DHT22;48119;53.218;6.576;2023-11-18T09:51:42;8.30;99.90
58554;DHT22;48119;53.218;6.576;2023-11-18T09:54:31;8.30;99.90
58554;DHT22;48119;53.218;6.576;2023-11-18T09:57:10;8.40;99.90
58554;DHT22;48119;53.218;6.576;2023-11-18T10:02:42;8.40;99.90
58554;DHT22;48119;53.218;6.576;2023-11-18T10:05:10;8.40;99.90
58554;DHT22;48119;53.218;6.576;2023-11-18T10:07:41;8.30;99.90
58554;DHT22;48119;53.218;6.576;2023-11-18T10:10:08;8.40;99.90
58554;DHT22;48119;53.218;6.576;2023-11-18T10:12:50;8.40;99.90
58554;DHT22;48119;53.218;6.576;2023-11-18T10:15:24;8.40;99.90
58554;DHT22;48119;53.218;6.576;2023-11-18T10:17:51;8.30;99.90
58554;DHT22;48119;53.218;6.576;2023-11-18T10:23:17;8.30;99.90
58554;DHT22;48119;53.218;6.576;2023-11-18T10:25:56;8.30;99.90
58554;DHT22;48119;53.218;6.576;2023-11-18T10:28:23;8.30;99.90
58554;DHT22;48119;53.218;6.576;2023-11-18T10:30:50;8.30;99.90
58554;DHT22;48119;53.218;6.576;2023-11-18T10:33:17;8.30;99.90
58554;DHT22;48119;53.218;6.576;2023-11-18T10:35:52;8.30;99.90
58554;DHT22;48119;53.218;6.576;2023-11-18T10:38:21;8.30;99.90
58554;DHT22;48119;53.218;6.576;2023-11-18T10:40:54;8.20;99.90
58554;DHT22;48119;53.218;6.576;2023-11-18T10:43:21;8.20;99.90
58554;DHT22;48119;53.218;6.576;2023-11-18T10:46:07;8.20;99.90
58554;DHT22;48119;53.218;6.576;2023-11-18T10:48:44;8.20;99.90
58554;DHT22;48119;53.218;6.576;2023-11-18T10:51:20;8.20;99.90
58554;DHT22;48119;53.218;6.576;2023-11-18T10:53:51;8.20;99.90
58554;DHT22;48119;53.218;6.576;2023-11-18T10:56:24;8.20;99.90
58554;DHT22;48119;53.218;6.576;2023-11-18T10:58:59;8.20;99.90
58554;DHT22;48119;53.218;6.576;2023-11-18T11:01:32;8.20;99.90
58554;DHT22;48119;53.218;6.576;2023-11-18T11:03:58;8.20;99.90
58554;DHT22;48119;53.218;6.576;2023-11-18T11:06:25;8.20;99.90
58554;DHT22;48119;53.218;6.576;2023-11-18T11:08:52;8.20;99.90
58554;DHT22;48119;53.218;6.576;2023-11-18T11:11:22;8.30;99.90
58554;DHT22;48119;53.218;6.576;2023-11-18T11:14:09;8.30;99.90
58554;DHT22;48119;53.218;6.576;2023-11-18T11:16:40;8.20;99.90
58554;DHT22;48119;53.218;6.576;2023-11-18T11:19:34;8.20;99.90
58554;DHT22;48119;53.218;6.576;2023-11-18T11:22:10;8.20;99.90
58554;DHT22;48119;53.218;6.576;2023-11-18T11:27:42;8.20;99.90
58554;DHT22;48119;53.218;6.576;2023-11-18T11:30:40;8.20;99.90
58554;DHT22;48119;53.218;6.576;2023-11-18T11:33:18;8.20;99.90
58554;DHT22;48119;53.218;6.576;2023-11-18T11:35:55;8.20;99.90
58554;DHT22;48119;53.218;6.576;2023-11-18T11:38:25;8.30;99.90
58554;DHT22;48119;53.218;6.576;2023-11-18T11:40:54;8.30;99.90
58554;DHT22;48119;53.218;6.576;2023-11-18T11:43:20;8.30;99.90
58554;DHT22;48119;53.218;6.576;2023-11-18T11:45:49;8.30;99.90
58554;DHT22;48119;53.218;6.576;2023-11-18T11:48:17;8.30;99.90
58554;DHT22;48119;53.218;6.576;2023-11-18T11:53:55;8.30;99.90
58554;DHT22;48119;53.218;6.576;2023-11-18T11:59:15;8.30;99.90
58554;DHT22;48119;53.218;6.576;2023-11-18T12:01:41;8.30;99.90
58554;DHT22;48119;53.218;6.576;2023-11-18T12:04:15;8.40;99.90
58554;DHT22;48119;53.218;6.576;2023-11-18T12:06:47;8.40;99.90
58554;DHT22;48119;53.218;6.576;2023-11-18T12:09:14;8.50;99.90
58554;DHT22;48119;53.218;6.576;2023-11-18T12:11:46;8.50;99.90
58554;DHT22;48119;53.218;6.576;2023-11-18T12:14:15;8.50;99.90
58554;DHT22;48119;53.218;6.576;2023-11-18T12:19:41;8.60;99.90
58554;DHT22;48119;53.218;6.576;2023-11-18T12:22:22;8.60;99.90
58554;DHT22;48119;53.218;6.576;2023-11-18T12:33:02;8.60;99.90
58554;DHT22;48119;53.218;6.576;2023-11-18T12:35:51;8.70;99.90
58554;DHT22;48119;53.218;6.576;2023-11-18T12:43:49;8.70;99.90
58554;DHT22;48119;53.218;6.576;2023-11-18T12:47:06;8.60;99.90
58554;DHT22;48119;53.218;6.576;2023-11-18T12:49:44;8.70;99.90
58554;DHT22;48119;53.218;6.576;2023-11-18T12:52:11;8.60;99.90
58554;DHT22;48119;53.218;6.576;2023-11-18T12:54:41;8.60;99.90
58554;DHT22;48119;53.218;6.576;2023-11-18T12:57:10;8.70;99.90
58554;DHT22;48119;53.218;6.576;2023-11-18T12:59:40;8.70;99.90
58554;DHT22;48119;53.218;6.576;2023-11-18T13:02:10;8.70;99.90
58554;DHT22;48119;53.218;6.576;2023-11-18T13:04:44;8.70;99.90
58554;DHT22;48119;53.218;6.576;2023-11-18T13:07:16;8.70;99.90
58554;DHT22;48119;53.218;6.576;2023-11-18T13:09:48;8.70;99.90
58554;DHT22;48119;53.218;6.576;2023-11-18T13:12:14;8.70;99.90
58554;DHT22;48119;53.218;6.576;2023-11-18T13:14:42;8.70;99.90
58554;DHT22;48119;53.218;6.576;2023-11-18T13:17:12;8.70;99.90
58554;DHT22;48119;53.218;6.576;2023-11-18T13:19:39;8.70;99.90
58554;DHT22;48119;53.218;6.576;2023-11-18T13:22:08;8.80;99.90
58554;DHT22;48119;53.218;6.576;2023-11-18T13:24:35;8.80;99.90
58554;DHT22;48119;53.218;6.576;2023-11-18T13:27:02;8.80;99.90
58554;DHT22;48119;53.218;6.576;2023-11-18T13:29:32;8.80;99.90
58554;DHT22;48119;53.218;6.576;2023-11-18T13:32:00;8.80;99.90
58554;DHT22;48119;53.218;6.576;2023-11-18T13:34:30;8.80;99.90
58554;DHT22;48119;53.218;6.576;2023-11-18T13:36:58;8.80;99.90
58554;DHT22;48119;53.218;6.576;2023-11-18T13:39:25;8.70;99.90
58554;DHT22;48119;53.218;6.576;2023-11-18T13:41:54;8.70;99.90
58554;DHT22;48119;53.218;6.576;2023-11-18T13:44:36;8.70;99.90
58554;DHT22;48119;53.218;6.576;2023-11-18T13:47:10;8.60;99.90
58554;DHT22;48119;53.218;6.576;2023-11-18T13:49:40;8.60;99.90
58554;DHT22;48119;53.218;6.576;2023-11-18T13:52:08;8.60;99.90
58554;DHT22;48119;53.218;6.576;2023-11-18T13:54:37;8.60;99.90
58554;DHT22;48119;53.218;6.576;2023-11-18T13:57:03;8.60;99.90
58554;DHT22;48119;53.218;6.576;2023-11-18T13:59:30;8.60;99.90
58554;DHT22;48119;53.218;6.576;2023-11-18T14:01:57;8.60;99.90
58554;DHT22;48119;53.218;6.576;2023-11-18T14:04:28;8.60;99.90
58554;DHT22;48119;53.218;6.576;2023-11-18T14:07:02;8.60;99.90
58554;DHT22;48119;53.218;6.576;2023-11-18T14:09:31;8.60;99.90
58554;DHT22;48119;53.218;6.576;2023-11-18T14:12:01;8.60;99.90
58554;DHT22;48119;53.218;6.576;2023-11-18T14:14:27;8.60;99.90
58554;DHT22;48119;53.218;6.576;2023-11-18T14:17:01;8.60;99.90
58554;DHT22;48119;53.218;6.576;2023-11-18T14:19:27;8.60;99.90
58554;DHT22;48119;53.218;6.576;2023-11-18T14:21:54;8.60;99.90
58554;DHT22;48119;53.218;6.576;2023-11-18T14:24:20;8.60;99.90
58554;DHT22;48119;53.218;6.576;2023-11-18T14:26:49;8.60;99.90
58554;DHT22;48119;53.218;6.576;2023-11-18T14:29:16;8.60;99.90
58554;DHT22;48119;53.218;6.576;2023-11-18T14:31:41;8.70;99.90
58554;DHT22;48119;53.218;6.576;2023-11-18T14:34:07;8.70;99.90
58554;DHT22;48119;53.218;6.576;2023-11-18T14:36:36;8.70;99.90
58554;DHT22;48119;53.218;6.576;2023-11-18T14:39:02;8.70;99.90
58554;DHT22;48119;53.218;6.576;2023-11-18T14:41:30;8.70;99.90
58554;DHT22;48119;53.218;6.576;2023-11-18T14:43:57;8.70;99.90
58554;DHT22;48119;53.218;6.576;2023-11-18T14:46:24;8.70;99.90
58554;DHT22;48119;53.218;6.576;2023-11-18T14:48:50;8.70;99.90
58554;DHT22;48119;53.218;6.576;2023-11-18T14:51:17;8.70;99.90
58554;DHT22;48119;53.218;6.576;2023-11-18T14:53:43;8.70;99.90
58554;DHT22;48119;53.218;6.576;2023-11-18T14:56:10;8.70;99.90
58554;DHT22;48119;53.218;6.576;2023-11-18T14:58:36;8.80;99.90
58554;DHT22;48119;53.218;6.576;2023-11-18T15:01:02;8.70;99.90
58554;DHT22;48119;53.218;6.576;2023-11-18T15:03:28;8.80;99.90
58554;DHT22;48119;53.218;6.576;2023-11-18T15:05:56;8.80;99.90
58554;DHT22;48119;53.218;6.576;2023-11-18T15:08:22;8.70;99.90
58554;DHT22;48119;53.218;6.576;2023-11-18T15:10:48;8.70;99.90
58554;DHT22;48119;53.218;6.576;2023-11-18T15:13:14;8.70;99.90
58554;DHT22;48119;53.218;6.576;2023-11-18T15:15:46;8.70;99.90
58554;DHT22;48119;53.218;6.576;2023-11-18T15:18:15;8.70;99.90
58554;DHT22;48119;53.218;6.576;2023-11-18T15:20:43;8.70;99.90
58554;DHT22;48119;53.218;6.576;2023-11-18T15:23:10;8.70;99.90
58554;DHT22;48119;53.218;6.576;2023-11-18T15:25:36;8.70;99.90
58554;DHT22;48119;53.218;6.576;2023-11-18T15:28:02;8.80;99.90
58554;DHT22;48119;53.218;6.576;2023-11-18T15:30:29;8.80;99.90
58554;DHT22;48119;53.218;6.576;2023-11-18T15:32:55;8.80;99.90
58554;DHT22;48119;53.218;6.576;2023-11-18T15:35:22;8.80;99.90
58554;DHT22;48119;53.218;6.576;2023-11-18T15:37:48;8.80;99.90
58554;DHT22;48119;53.218;6.576;2023-11-18T15:40:15;8.80;99.90
58554;DHT22;48119;53.218;6.576;2023-11-18T15:42:46;8.80;99.90
58554;DHT22;48119;53.218;6.576;2023-11-18T15:45:20;8.80;99.90
58554;DHT22;48119;53.218;6.576;2023-11-18T15:47:47;8.80;99.90
58554;DHT22;48119;53.218;6.576;2023-11-18T15:50:14;8.80;99.90
58554;DHT22;48119;53.218;6.576;2023-11-18T15:52:45;8.80;99.90
58554;DHT22;48119;53.218;6.576;2023-11-18T15:55:11;8.80;99.90
58554;DHT22;48119;53.218;6.576;2023-11-18T15:57:45;8.80;99.90
58554;DHT22;48119;53.218;6.576;2023-11-18T16:00:19;8.80;99.90
58554;DHT22;48119;53.218;6.576;2023-11-18T16:02:47;8.80;99.90
58554;DHT22;48119;53.218;6.576;2023-11-18T16:05:15;8.80;99.90
58554;DHT22;48119;53.218;6.576;2023-11-18T16:07:45;8.80;99.90
58554;DHT22;48119;53.218;6.576;2023-11-18T16:10:11;8.80;99.90
58554;DHT22;48119;53.218;6.576;2023-11-18T16:12:51;8.80;99.90
58554;DHT22;48119;53.218;6.576;2023-11-18T16:15:21;8.90;99.90
58554;DHT22;48119;53.218;6.576;2023-11-18T16:17:49;8.90;99.90
58554;DHT22;48119;53.218;6.576;2023-11-18T16:20:17;8.90;99.90
58554;DHT22;48119;53.218;6.576;2023-11-18T16:22:44;8.90;99.90
58554;DHT22;48119;53.218;6.576;2023-11-18T16:25:17;8.90;99.90
58554;DHT22;48119;53.218;6.576;2023-11-18T16:27:52;8.90;99.90
58554;DHT22;48119;53.218;6.576;2023-11-18T16:30:20;8.90;99.90
58554;DHT22;48119;53.218;6.576;2023-11-18T16:32:55;8.80;99.90